sensor_id;sensor_type;location;lat;lon;timestamp;pressure;altitude;pressure_sealevel;temperature;humidity
5062;BME280;2351;50.812;12.872;2023-07-09T00:00:54;98307.88;;;18.14;63.66
5062;BME280;2351;50.812;12.872;2023-07-09T00:03:28;98314.38;;;18.11;64.02
5062;BME280;2351;50.812;12.872;2023-07-09T00:06:00;98320.47;;;18.05;64.05
5062;BME280;2351;50.812;12.872;2023-07-09T00:08:32;98326.31;;;18.00;64.06
5062;BME280;2351;50.812;12.872;2023-07-09T00:11:04;98327.66;;;17.96;64.16
5062;BME280;2351;50.812;12.872;2023-07-09T00:13:35;98327.13;;;17.92;64.51
5062;BME280;2351;50.812;12.872;2023-07-09T00:16:12;98322.28;;;17.88;64.67
5062;BME280;2351;50.812;12.872;2023-07-09T00:18:46;98330.00;;;17.83;64.49
5062;BME280;2351;50.812;12.872;2023-07-09T00:21:20;98321.81;;;17.76;64.84
5062;BME280;2351;50.812;12.872;2023-07-09T00:23:52;98319.66;;;17.71;65.00
5062;BME280;2351;50.812;12.872;2023-07-09T00:26:24;98313.78;;;17.68;65.29
5062;BME280;2351;50.812;12.872;2023-07-09T00:28:56;98318.63;;;17.64;65.09
5062;BME280;2351;50.812;12.872;2023-07-09T00:31:28;98319.16;;;17.59;65.52
5062;BME280;2351;50.812;12.872;2023-07-09T00:34:01;98317.63;;;17.57;65.30
5062;BME280;2351;50.812;12.872;2023-07-09T00:36:33;98306.63;;;17.52;65.87
5062;BME280;2351;50.812;12.872;2023-07-09T00:39:13;98309.44;;;17.50;65.89
5062;BME280;2351;50.812;12.872;2023-07-09T00:41:49;98309.63;;;17.49;66.10
5062;BME280;2351;50.812;12.872;2023-07-09T00:44:27;98306.28;;;17.46;66.30
5062;BME280;2351;50.812;12.872;2023-07-09T00:47:28;98310.97;;;17.44;66.49
5062;BME280;2351;50.812;12.872;2023-07-09T00:50:09;98306.94;;;17.40;66.55
5062;BME280;2351;50.812;12.872;2023-07-09T00:52:48;98303.91;;;17.35;66.61
5062;BME280;2351;50.812;12.872;2023-07-09T00:55:23;98306.97;;;17.32;67.12
5062;BME280;2351;50.812;12.872;2023-07-09T00:57:58;98313.63;;;17.28;67.15
5062;BME280;2351;50.812;12.872;2023-07-09T01:00:35;98306.09;;;17.23;67.32
5062;BME280;2351;50.812;12.872;2023-07-09T01:03:18;98305.91;;;17.16;67.42
5062;BME280;2351;50.812;12.872;2023-07-09T01:05:53;98306.09;;;17.15;67.79
5062;BME280;2351;50.812;12.872;2023-07-09T01:08:25;98304.56;;;17.12;67.95
5062;BME280;2351;50.812;12.872;2023-07-09T01:11:01;98311.09;;;17.10;68.24
5062;BME280;2351;50.812;12.872;2023-07-09T01:13:32;98302.41;;;17.08;68.38
5062;BME280;2351;50.812;12.872;2023-07-09T01:16:05;98303.72;;;17.04;68.48
5062;BME280;2351;50.812;12.872;2023-07-09T01:18:37;98303.22;;;17.00;68.52
5062;BME280;2351;50.812;12.872;2023-07-09T01:21:11;98309.09;;;16.95;68.73
5062;BME280;2351;50.812;12.872;2023-07-09T01:23:47;98306.03;;;16.90;68.81
5062;BME280;2351;50.812;12.872;2023-07-09T01:26:22;98306.34;;;16.87;68.93
5062;BME280;2351;50.812;12.872;2023-07-09T01:28:55;98303.31;;;16.82;69.09
5062;BME280;2351;50.812;12.872;2023-07-09T01:31:27;98312.66;;;16.78;69.19
5062;BME280;2351;50.812;12.872;2023-07-09T01:33:59;98310.81;;;16.70;69.13
5062;BME280;2351;50.812;12.872;2023-07-09T01:36:32;98307.78;;;16.56;69.22
5062;BME280;2351;50.812;12.872;2023-07-09T01:39:05;98297.72;;;16.42;69.11
5062;BME280;2351;50.812;12.872;2023-07-09T01:41:37;98298.66;;;16.33;69.56
5062;BME280;2351;50.812;12.872;2023-07-09T01:44:09;98298.97;;;16.30;69.68
5062;BME280;2351;50.812;12.872;2023-07-09T01:46:42;98301.97;;;16.26;70.05
5062;BME280;2351;50.812;12.872;2023-07-09T01:49:15;98303.13;;;16.24;69.99
5062;BME280;2351;50.812;12.872;2023-07-09T01:51:48;98296.81;;;16.25;70.36
5062;BME280;2351;50.812;12.872;2023-07-09T01:54:20;98306.63;;;16.24;70.32
5062;BME280;2351;50.812;12.872;2023-07-09T01:56:52;98302.13;;;16.25;70.47
5062;BME280;2351;50.812;12.872;2023-07-09T01:59:31;98308.63;;;16.22;70.64
5062;BME280;2351;50.812;12.872;2023-07-09T02:02:03;98308.09;;;16.19;70.68
5062;BME280;2351;50.812;12.872;2023-07-09T02:04:35;98304.94;;;16.15;70.82
5062;BME280;2351;50.812;12.872;2023-07-09T02:07:08;98305.75;;;16.16;71.15
5062;BME280;2351;50.812;12.872;2023-07-09T02:09:40;98307.75;;;16.14;71.00
5062;BME280;2351;50.812;12.872;2023-07-09T02:12:13;98310.41;;;16.14;71.29
5062;BME280;2351;50.812;12.872;2023-07-09T02:14:45;98309.72;;;16.11;71.50
5062;BME280;2351;50.812;12.872;2023-07-09T02:17:18;98306.88;;;16.05;71.41
5062;BME280;2351;50.812;12.872;2023-07-09T02:19:49;98314.84;;;15.96;71.43
5062;BME280;2351;50.812;12.872;2023-07-09T02:22:22;98305.47;;;15.92;71.76
5062;BME280;2351;50.812;12.872;2023-07-09T02:24:54;98308.63;;;15.88;71.56
5062;BME280;2351;50.812;12.872;2023-07-09T02:27:26;98302.88;;;15.82;71.71
5062;BME280;2351;50.812;12.872;2023-07-09T02:29:58;98306.53;;;15.81;71.69
5062;BME280;2351;50.812;12.872;2023-07-09T02:32:30;98313.00;;;15.79;71.53
5062;BME280;2351;50.812;12.872;2023-07-09T02:35:02;98318.53;;;15.77;71.68
5062;BME280;2351;50.812;12.872;2023-07-09T02:37:36;98319.69;;;15.75;71.92
5062;BME280;2351;50.812;12.872;2023-07-09T02:40:08;98319.81;;;15.73;72.18
5062;BME280;2351;50.812;12.872;2023-07-09T02:42:41;98322.97;;;15.69;72.16
5062;BME280;2351;50.812;12.872;2023-07-09T02:45:13;98315.88;;;15.59;72.16
5062;BME280;2351;50.812;12.872;2023-07-09T02:47:44;98313.84;;;15.53;72.45
5062;BME280;2351;50.812;12.872;2023-07-09T02:50:16;98317.50;;;15.52;72.55
5062;BME280;2351;50.812;12.872;2023-07-09T02:52:49;98319.31;;;15.51;72.80
5062;BME280;2351;50.812;12.872;2023-07-09T02:55:21;98322.00;;;15.51;72.79
5062;BME280;2351;50.812;12.872;2023-07-09T02:57:52;98318.63;;;15.49;72.84
5062;BME280;2351;50.812;12.872;2023-07-09T03:00:24;98314.97;;;15.50;73.05
5062;BME280;2351;50.812;12.872;2023-07-09T03:02:56;98321.16;;;15.51;72.98
5062;BME280;2351;50.812;12.872;2023-07-09T03:05:27;98317.81;;;15.49;73.17
5062;BME280;2351;50.812;12.872;2023-07-09T03:08:01;98318.63;;;15.49;73.24
5062;BME280;2351;50.812;12.872;2023-07-09T03:10:32;98321.47;;;15.48;73.45
5062;BME280;2351;50.812;12.872;2023-07-09T03:13:04;98324.16;;;15.48;73.49
5062;BME280;2351;50.812;12.872;2023-07-09T03:15:36;98324.16;;;15.48;73.54
5062;BME280;2351;50.812;12.872;2023-07-09T03:18:08;98316.13;;;15.48;73.83
5062;BME280;2351;50.812;12.872;2023-07-09T03:20:39;98316.81;;;15.50;73.97
5062;BME280;2351;50.812;12.872;2023-07-09T03:23:12;98319.19;;;15.53;74.03
5062;BME280;2351;50.812;12.872;2023-07-09T03:25:44;98316.53;;;15.53;74.10
5062;BME280;2351;50.812;12.872;2023-07-09T03:28:16;98320.19;;;15.52;74.13
5062;BME280;2351;50.812;12.872;2023-07-09T03:30:49;98320.19;;;15.52;74.32
5062;BME280;2351;50.812;12.872;2023-07-09T03:33:20;98321.16;;;15.51;74.39
5062;BME280;2351;50.812;12.872;2023-07-09T03:35:54;98326.50;;;15.51;74.62
5062;BME280;2351;50.812;12.872;2023-07-09T03:38:27;98342.50;;;15.51;74.68
5062;BME280;2351;50.812;12.872;2023-07-09T03:40:59;98335.34;;;15.51;74.73
5062;BME280;2351;50.812;12.872;2023-07-09T03:43:30;98335.34;;;15.51;74.87
5062;BME280;2351;50.812;12.872;2023-07-09T03:46:02;98338.84;;;15.52;75.19
5062;BME280;2351;50.812;12.872;2023-07-09T03:48:34;98337.19;;;15.51;75.16
5062;BME280;2351;50.812;12.872;2023-07-09T03:51:06;98335.19;;;15.53;75.31
5062;BME280;2351;50.812;12.872;2023-07-09T03:53:39;98339.38;;;15.56;75.59
5062;BME280;2351;50.812;12.872;2023-07-09T03:56:10;98325.34;;;15.54;75.38
5062;BME280;2351;50.812;12.872;2023-07-09T03:58:42;98335.50;;;15.50;75.44
5062;BME280;2351;50.812;12.872;2023-07-09T04:01:14;98335.50;;;15.50;75.80
5062;BME280;2351;50.812;12.872;2023-07-09T04:03:46;98336.19;;;15.52;75.81
5062;BME280;2351;50.812;12.872;2023-07-09T04:06:18;98323.66;;;15.52;75.90
5062;BME280;2351;50.812;12.872;2023-07-09T04:08:51;98340.53;;;15.53;75.95
5062;BME280;2351;50.812;12.872;2023-07-09T04:11:23;98326.34;;;15.52;75.85
5062;BME280;2351;50.812;12.872;2023-07-09T04:13:54;98329.84;;;15.53;76.34
5062;BME280;2351;50.812;12.872;2023-07-09T04:16:26;98332.34;;;15.55;76.27
5062;BME280;2351;50.812;12.872;2023-07-09T04:18:58;98332.88;;;15.58;76.32
5062;BME280;2351;50.812;12.872;2023-07-09T04:21:30;98337.78;;;15.63;76.48
5062;BME280;2351;50.812;12.872;2023-07-09T04:24:03;98335.31;;;15.70;76.68
5062;BME280;2351;50.812;12.872;2023-07-09T04:26:35;98339.19;;;15.75;76.70
5062;BME280;2351;50.812;12.872;2023-07-09T04:29:11;98338.56;;;15.81;76.99
5062;BME280;2351;50.812;12.872;2023-07-09T04:31:43;98338.50;;;15.91;77.25
5062;BME280;2351;50.812;12.872;2023-07-09T04:34:15;98344.72;;;16.00;77.36
5062;BME280;2351;50.812;12.872;2023-07-09T04:36:46;98346.47;;;16.09;77.35
5062;BME280;2351;50.812;12.872;2023-07-09T04:39:19;98340.16;;;16.19;77.59
5062;BME280;2351;50.812;12.872;2023-07-09T04:41:52;98339.91;;;16.30;77.70
5062;BME280;2351;50.812;12.872;2023-07-09T04:44:23;98334.44;;;16.40;77.89
5062;BME280;2351;50.812;12.872;2023-07-09T04:46:55;98335.13;;;16.50;77.96
5062;BME280;2351;50.812;12.872;2023-07-09T04:49:27;98338.34;;;16.62;77.85
5062;BME280;2351;50.812;12.872;2023-07-09T04:51:59;98329.38;;;16.71;78.16
5062;BME280;2351;50.812;12.872;2023-07-09T04:54:32;98339.75;;;16.83;78.19
5062;BME280;2351;50.812;12.872;2023-07-09T04:57:05;98341.16;;;16.95;78.14
5062;BME280;2351;50.812;12.872;2023-07-09T04:59:36;98347.03;;;17.07;78.24
5062;BME280;2351;50.812;12.872;2023-07-09T05:02:08;98344.88;;;17.19;78.43
5062;BME280;2351;50.812;12.872;2023-07-09T05:04:40;98339.06;;;17.32;78.48
5062;BME280;2351;50.812;12.872;2023-07-09T05:07:11;98340.38;;;17.44;78.44
5062;BME280;2351;50.812;12.872;2023-07-09T05:09:44;98341.88;;;17.55;78.29
5062;BME280;2351;50.812;12.872;2023-07-09T05:12:16;98338.88;;;17.67;78.11
5062;BME280;2351;50.812;12.872;2023-07-09T05:14:48;98342.03;;;17.79;78.10
5062;BME280;2351;50.812;12.872;2023-07-09T05:17:19;98343.38;;;17.91;77.96
5062;BME280;2351;50.812;12.872;2023-07-09T05:19:52;98347.38;;;18.03;77.66
5062;BME280;2351;50.812;12.872;2023-07-09T05:22:24;98339.69;;;18.17;77.50
5062;BME280;2351;50.812;12.872;2023-07-09T05:24:57;98343.31;;;18.32;77.63
5062;BME280;2351;50.812;12.872;2023-07-09T05:27:29;98346.09;;;18.47;77.44
5062;BME280;2351;50.812;12.872;2023-07-09T05:30:01;98346.22;;;18.62;77.20
5062;BME280;2351;50.812;12.872;2023-07-09T05:32:32;98351.66;;;18.77;77.26
5062;BME280;2351;50.812;12.872;2023-07-09T05:35:05;98356.09;;;18.93;76.85
5062;BME280;2351;50.812;12.872;2023-07-09T05:37:37;98356.22;;;19.08;76.74
5062;BME280;2351;50.812;12.872;2023-07-09T05:40:11;98350.75;;;19.25;76.53
5062;BME280;2351;50.812;12.872;2023-07-09T05:42:43;98352.28;;;19.42;76.07
5062;BME280;2351;50.812;12.872;2023-07-09T05:45:15;98355.03;;;19.57;76.16
5062;BME280;2351;50.812;12.872;2023-07-09T05:47:47;98346.00;;;19.74;75.58
5062;BME280;2351;50.812;12.872;2023-07-09T05:50:19;98348.41;;;19.92;75.23
5062;BME280;2351;50.812;12.872;2023-07-09T05:52:50;98345.75;;;20.07;74.79
5062;BME280;2351;50.812;12.872;2023-07-09T05:55:23;98348.06;;;20.25;74.37
5062;BME280;2351;50.812;12.872;2023-07-09T05:57:55;98345.38;;;20.40;74.04
5062;BME280;2351;50.812;12.872;2023-07-09T06:00:27;98353.88;;;20.58;73.43
5062;BME280;2351;50.812;12.872;2023-07-09T06:02:58;98347.69;;;20.73;72.84
5062;BME280;2351;50.812;12.872;2023-07-09T06:05:31;98342.94;;;20.90;72.36
5062;BME280;2351;50.812;12.872;2023-07-09T06:08:03;98349.13;;;21.05;72.00
5062;BME280;2351;50.812;12.872;2023-07-09T06:10:37;98347.84;;;21.23;71.18
5062;BME280;2351;50.812;12.872;2023-07-09T06:13:08;98350.03;;;21.56;70.03
5062;BME280;2351;50.812;12.872;2023-07-09T06:15:40;98347.63;;;22.18;68.48
5062;BME280;2351;50.812;12.872;2023-07-09T06:18:12;98348.16;;;22.70;64.77
5062;BME280;2351;50.812;12.872;2023-07-09T06:20:47;98354.91;;;23.08;63.25
5062;BME280;2351;50.812;12.872;2023-07-09T06:23:19;98350.63;;;23.27;62.10
5062;BME280;2351;50.812;12.872;2023-07-09T06:25:52;98355.00;;;23.22;60.42
5062;BME280;2351;50.812;12.872;2023-07-09T06:28:25;98347.88;;;23.14;59.68
5062;BME280;2351;50.812;12.872;2023-07-09T06:30:59;98352.66;;;23.12;59.20
5062;BME280;2351;50.812;12.872;2023-07-09T06:33:31;98356.41;;;23.11;58.79
5062;BME280;2351;50.812;12.872;2023-07-09T06:36:03;98360.53;;;23.13;58.31
5062;BME280;2351;50.812;12.872;2023-07-09T06:38:36;98360.19;;;23.23;58.19
5062;BME280;2351;50.812;12.872;2023-07-09T06:41:09;98360.81;;;23.32;57.56
5062;BME280;2351;50.812;12.872;2023-07-09T06:43:40;98359.78;;;23.40;56.88
5062;BME280;2351;50.812;12.872;2023-07-09T06:46:13;98366.44;;;23.51;56.50
5062;BME280;2351;50.812;12.872;2023-07-09T06:48:45;98365.22;;;23.60;55.86
5062;BME280;2351;50.812;12.872;2023-07-09T06:51:17;98366.47;;;23.64;54.87
5062;BME280;2351;50.812;12.872;2023-07-09T06:53:49;98361.50;;;23.68;54.13
5062;BME280;2351;50.812;12.872;2023-07-09T06:56:23;98362.53;;;23.73;54.57
5062;BME280;2351;50.812;12.872;2023-07-09T06:58:54;98362.13;;;23.83;54.27
5062;BME280;2351;50.812;12.872;2023-07-09T07:01:26;98359.03;;;24.00;53.74
5062;BME280;2351;50.812;12.872;2023-07-09T07:03:58;98357.34;;;24.12;53.15
5062;BME280;2351;50.812;12.872;2023-07-09T07:06:30;98360.03;;;24.26;52.84
5062;BME280;2351;50.812;12.872;2023-07-09T07:09:02;98353.94;;;24.44;52.01
5062;BME280;2351;50.812;12.872;2023-07-09T07:11:35;98348.91;;;24.61;51.58
5062;BME280;2351;50.812;12.872;2023-07-09T07:14:07;98353.88;;;24.77;51.37
5062;BME280;2351;50.812;12.872;2023-07-09T07:16:39;98345.47;;;24.92;50.58
5062;BME280;2351;50.812;12.872;2023-07-09T07:19:10;98353.97;;;25.03;49.90
5062;BME280;2351;50.812;12.872;2023-07-09T07:21:42;98350.56;;;25.14;49.36
5062;BME280;2351;50.812;12.872;2023-07-09T07:24:14;98352.63;;;25.25;48.24
5062;BME280;2351;50.812;12.872;2023-07-09T07:26:47;98346.91;;;25.34;47.20
5062;BME280;2351;50.812;12.872;2023-07-09T07:29:18;98348.34;;;25.43;47.21
5062;BME280;2351;50.812;12.872;2023-07-09T07:31:50;98345.97;;;25.53;46.71
5062;BME280;2351;50.812;12.872;2023-07-09T07:34:23;98348.88;;;25.59;45.78
5062;BME280;2351;50.812;12.872;2023-07-09T07:36:55;98352.97;;;25.68;45.39
5062;BME280;2351;50.812;12.872;2023-07-09T07:39:27;98351.81;;;25.82;45.05
5062;BME280;2351;50.812;12.872;2023-07-09T07:42:00;98356.28;;;25.95;44.89
5062;BME280;2351;50.812;12.872;2023-07-09T07:44:32;98355.34;;;26.08;43.94
5062;BME280;2351;50.812;12.872;2023-07-09T07:47:05;98349.78;;;26.22;43.60
5062;BME280;2351;50.812;12.872;2023-07-09T07:49:37;98352.84;;;26.32;43.31
5062;BME280;2351;50.812;12.872;2023-07-09T07:52:09;98349.97;;;26.45;43.10
5062;BME280;2351;50.812;12.872;2023-07-09T07:54:40;98348.38;;;26.56;42.97
5062;BME280;2351;50.812;12.872;2023-07-09T07:57:13;98351.16;;;26.68;41.97
5062;BME280;2351;50.812;12.872;2023-07-09T07:59:45;98354.81;;;26.81;41.71
5062;BME280;2351;50.812;12.872;2023-07-09T08:02:17;98346.34;;;26.89;40.89
5062;BME280;2351;50.812;12.872;2023-07-09T08:04:49;98349.81;;;26.96;40.24
5062;BME280;2351;50.812;12.872;2023-07-09T08:07:21;98354.09;;;27.04;39.17
5062;BME280;2351;50.812;12.872;2023-07-09T08:09:53;98353.41;;;27.09;38.73
5062;BME280;2351;50.812;12.872;2023-07-09T08:12:26;98350.47;;;27.10;38.85
5062;BME280;2351;50.812;12.872;2023-07-09T08:14:57;98350.59;;;27.15;38.11
5062;BME280;2351;50.812;12.872;2023-07-09T08:17:29;98349.97;;;27.32;38.45
5062;BME280;2351;50.812;12.872;2023-07-09T08:20:01;98351.22;;;27.60;38.37
5062;BME280;2351;50.812;12.872;2023-07-09T08:22:33;98340.97;;;27.74;38.04
5062;BME280;2351;50.812;12.872;2023-07-09T08:25:06;98348.31;;;27.85;36.89
5062;BME280;2351;50.812;12.872;2023-07-09T08:27:39;98350.78;;;27.87;36.12
5062;BME280;2351;50.812;12.872;2023-07-09T08:30:11;98342.88;;;27.85;36.11
5062;BME280;2351;50.812;12.872;2023-07-09T08:32:43;98348.78;;;27.82;34.54
5062;BME280;2351;50.812;12.872;2023-07-09T08:35:15;98343.47;;;27.87;34.77
5062;BME280;2351;50.812;12.872;2023-07-09T08:37:46;98340.63;;;27.94;35.17
5062;BME280;2351;50.812;12.872;2023-07-09T08:40:18;98339.19;;;28.03;35.08
5062;BME280;2351;50.812;12.872;2023-07-09T08:42:57;98338.50;;;28.08;34.90
5062;BME280;2351;50.812;12.872;2023-07-09T08:45:40;98338.75;;;28.18;34.25
5062;BME280;2351;50.812;12.872;2023-07-09T08:48:20;98338.16;;;28.28;34.23
5062;BME280;2351;50.812;12.872;2023-07-09T08:50:56;98338.63;;;28.25;33.45
5062;BME280;2351;50.812;12.872;2023-07-09T08:53:35;98333.09;;;28.32;32.98
5062;BME280;2351;50.812;12.872;2023-07-09T08:56:09;98334.97;;;28.31;31.95
5062;BME280;2351;50.812;12.872;2023-07-09T08:58:43;98336.50;;;28.39;31.98
5062;BME280;2351;50.812;12.872;2023-07-09T09:01:19;98337.78;;;28.48;31.92
5062;BME280;2351;50.812;12.872;2023-07-09T09:03:52;98329.63;;;28.48;30.40
5062;BME280;2351;50.812;12.872;2023-07-09T09:06:27;98330.56;;;28.54;31.25
5062;BME280;2351;50.812;12.872;2023-07-09T09:09:04;98329.34;;;28.62;31.08
5062;BME280;2351;50.812;12.872;2023-07-09T09:11:44;98326.84;;;28.72;31.07
5062;BME280;2351;50.812;12.872;2023-07-09T09:14:26;98323.69;;;28.75;31.32
5062;BME280;2351;50.812;12.872;2023-07-09T09:16:59;98320.47;;;28.78;31.47
5062;BME280;2351;50.812;12.872;2023-07-09T09:19:37;98320.91;;;28.87;31.09
5062;BME280;2351;50.812;12.872;2023-07-09T09:22:11;98327.88;;;28.95;30.83
5062;BME280;2351;50.812;12.872;2023-07-09T09:24:54;98321.78;;;29.05;30.41
5062;BME280;2351;50.812;12.872;2023-07-09T09:27:27;98321.63;;;29.11;30.51
5062;BME280;2351;50.812;12.872;2023-07-09T09:30:00;98331.06;;;29.21;29.85
5062;BME280;2351;50.812;12.872;2023-07-09T09:32:41;98325.13;;;29.24;29.65
5062;BME280;2351;50.812;12.872;2023-07-09T09:35:15;98322.75;;;29.27;29.15
5062;BME280;2351;50.812;12.872;2023-07-09T09:37:51;98325.56;;;29.33;29.71
5062;BME280;2351;50.812;12.872;2023-07-09T09:40:25;98322.13;;;29.37;29.45
5062;BME280;2351;50.812;12.872;2023-07-09T09:42:58;98324.34;;;29.40;29.02
5062;BME280;2351;50.812;12.872;2023-07-09T09:45:35;98324.94;;;29.42;28.00
5062;BME280;2351;50.812;12.872;2023-07-09T09:48:15;98328.25;;;29.44;27.58
5062;BME280;2351;50.812;12.872;2023-07-09T09:50:48;98325.25;;;29.46;27.67
5062;BME280;2351;50.812;12.872;2023-07-09T09:53:21;98323.78;;;29.55;28.01
5062;BME280;2351;50.812;12.872;2023-07-09T09:55:55;98328.50;;;29.60;28.27
5062;BME280;2351;50.812;12.872;2023-07-09T09:58:29;98323.44;;;29.52;26.94
5062;BME280;2351;50.812;12.872;2023-07-09T10:01:02;98329.31;;;29.60;27.01
5062;BME280;2351;50.812;12.872;2023-07-09T10:03:34;98330.56;;;29.70;27.62
5062;BME280;2351;50.812;12.872;2023-07-09T10:06:14;98327.19;;;29.80;26.99
5062;BME280;2351;50.812;12.872;2023-07-09T10:08:56;98332.13;;;29.83;26.80
5062;BME280;2351;50.812;12.872;2023-07-09T10:11:39;98326.00;;;29.93;27.05
5062;BME280;2351;50.812;12.872;2023-07-09T10:14:33;98325.88;;;29.99;27.44
5062;BME280;2351;50.812;12.872;2023-07-09T10:17:16;98332.28;;;30.10;27.81
5062;BME280;2351;50.812;12.872;2023-07-09T10:19:53;98322.34;;;30.21;27.25
5062;BME280;2351;50.812;12.872;2023-07-09T10:22:39;98327.13;;;30.31;26.85
5062;BME280;2351;50.812;12.872;2023-07-09T10:25:25;98330.94;;;30.30;27.19
5062;BME280;2351;50.812;12.872;2023-07-09T10:28:20;98331.81;;;30.35;26.80
5062;BME280;2351;50.812;12.872;2023-07-09T10:31:01;98317.66;;;30.39;26.21
5062;BME280;2351;50.812;12.872;2023-07-09T10:33:46;98310.06;;;30.41;26.63
5062;BME280;2351;50.812;12.872;2023-07-09T10:36:37;98319.13;;;30.46;26.57
5062;BME280;2351;50.812;12.872;2023-07-09T10:39:17;98315.22;;;30.59;26.92
5062;BME280;2351;50.812;12.872;2023-07-09T10:41:55;98315.88;;;30.67;26.51
5062;BME280;2351;50.812;12.872;2023-07-09T10:44:34;98320.88;;;30.75;26.81
5062;BME280;2351;50.812;12.872;2023-07-09T10:47:11;98317.75;;;30.88;26.61
5062;BME280;2351;50.812;12.872;2023-07-09T10:49:46;98317.81;;;30.93;26.04
5062;BME280;2351;50.812;12.872;2023-07-09T10:52:21;98304.97;;;30.94;25.84
5062;BME280;2351;50.812;12.872;2023-07-09T10:54:58;98308.78;;;30.93;25.52
5062;BME280;2351;50.812;12.872;2023-07-09T10:57:41;98310.75;;;30.98;25.82
5062;BME280;2351;50.812;12.872;2023-07-09T11:00:18;98305.97;;;31.10;26.29
5062;BME280;2351;50.812;12.872;2023-07-09T11:02:56;98300.63;;;31.20;25.75
5062;BME280;2351;50.812;12.872;2023-07-09T11:05:31;98307.03;;;31.31;26.28
5062;BME280;2351;50.812;12.872;2023-07-09T11:08:06;98304.13;;;31.43;25.96
5062;BME280;2351;50.812;12.872;2023-07-09T11:10:47;98304.47;;;31.52;26.18
5062;BME280;2351;50.812;12.872;2023-07-09T11:13:24;98300.94;;;31.57;26.21
5062;BME280;2351;50.812;12.872;2023-07-09T11:15:58;98301.28;;;31.65;26.00
5062;BME280;2351;50.812;12.872;2023-07-09T11:18:32;98300.56;;;31.75;26.01
5062;BME280;2351;50.812;12.872;2023-07-09T11:21:07;98302.25;;;31.81;25.96
5062;BME280;2351;50.812;12.872;2023-07-09T11:23:47;98290.47;;;31.81;25.34
5062;BME280;2351;50.812;12.872;2023-07-09T11:26:25;98297.88;;;31.80;24.98
5062;BME280;2351;50.812;12.872;2023-07-09T11:29:14;98296.22;;;31.79;25.47
5062;BME280;2351;50.812;12.872;2023-07-09T11:31:46;98295.69;;;31.82;25.69
5062;BME280;2351;50.812;12.872;2023-07-09T11:34:20;98292.72;;;31.89;25.23
5062;BME280;2351;50.812;12.872;2023-07-09T11:36:58;98284.53;;;31.89;25.05
5062;BME280;2351;50.812;12.872;2023-07-09T11:39:44;98293.53;;;31.84;25.33
5062;BME280;2351;50.812;12.872;2023-07-09T11:42:30;98290.22;;;31.82;24.33
5062;BME280;2351;50.812;12.872;2023-07-09T11:45:08;98295.59;;;31.72;24.39
5062;BME280;2351;50.812;12.872;2023-07-09T11:47:43;98297.59;;;31.82;25.04
5062;BME280;2351;50.812;12.872;2023-07-09T11:50:23;98287.00;;;31.96;25.43
5062;BME280;2351;50.812;12.872;2023-07-09T11:52:59;98280.25;;;32.09;24.69
5062;BME280;2351;50.812;12.872;2023-07-09T11:55:39;98292.03;;;32.14;24.24
5062;BME280;2351;50.812;12.872;2023-07-09T11:58:13;98284.63;;;32.10;24.53
5062;BME280;2351;50.812;12.872;2023-07-09T12:00:47;98287.91;;;32.07;23.69
5062;BME280;2351;50.812;12.872;2023-07-09T12:03:23;98286.16;;;31.90;24.05
5062;BME280;2351;50.812;12.872;2023-07-09T12:06:00;98284.59;;;31.99;24.38
5062;BME280;2351;50.812;12.872;2023-07-09T12:08:37;98278.28;;;31.99;24.23
5062;BME280;2351;50.812;12.872;2023-07-09T12:11:19;98272.81;;;31.99;23.95
5062;BME280;2351;50.812;12.872;2023-07-09T12:13:51;98276.91;;;31.96;24.09
5062;BME280;2351;50.812;12.872;2023-07-09T12:16:25;98270.09;;;32.04;23.78
5062;BME280;2351;50.812;12.872;2023-07-09T12:18:58;98271.50;;;32.12;24.42
5062;BME280;2351;50.812;12.872;2023-07-09T12:21:31;98263.59;;;32.15;23.43
5062;BME280;2351;50.812;12.872;2023-07-09T12:24:17;98264.44;;;32.16;24.07
5062;BME280;2351;50.812;12.872;2023-07-09T12:26:51;98258.75;;;32.33;24.46
5062;BME280;2351;50.812;12.872;2023-07-09T12:29:24;98257.78;;;32.55;25.02
5062;BME280;2351;50.812;12.872;2023-07-09T12:31:57;98252.34;;;32.75;24.69
5062;BME280;2351;50.812;12.872;2023-07-09T12:34:30;98246.38;;;32.89;23.87
5062;BME280;2351;50.812;12.872;2023-07-09T12:37:02;98242.47;;;32.80;23.91
5062;BME280;2351;50.812;12.872;2023-07-09T12:39:37;98243.63;;;32.89;23.75
5062;BME280;2351;50.812;12.872;2023-07-09T12:42:15;98239.81;;;32.95;23.89
5062;BME280;2351;50.812;12.872;2023-07-09T12:44:47;98245.28;;;32.95;24.41
5062;BME280;2351;50.812;12.872;2023-07-09T12:47:20;98244.75;;;33.14;24.04
5062;BME280;2351;50.812;12.872;2023-07-09T12:50:00;98238.19;;;33.30;23.49
5062;BME280;2351;50.812;12.872;2023-07-09T12:52:32;98233.22;;;33.22;23.57
5062;BME280;2351;50.812;12.872;2023-07-09T12:55:19;98238.47;;;33.29;23.74
5062;BME280;2351;50.812;12.872;2023-07-09T12:57:51;98231.63;;;33.42;23.63
5062;BME280;2351;50.812;12.872;2023-07-09T13:00:26;98231.91;;;33.45;22.78
5062;BME280;2351;50.812;12.872;2023-07-09T13:03:02;98226.69;;;33.54;23.01
5062;BME280;2351;50.812;12.872;2023-07-09T13:05:34;98230.47;;;33.69;23.21
5062;BME280;2351;50.812;12.872;2023-07-09T13:08:13;98220.84;;;33.87;23.15
5062;BME280;2351;50.812;12.872;2023-07-09T13:10:47;98219.78;;;33.93;22.66
5062;BME280;2351;50.812;12.872;2023-07-09T13:13:23;98224.72;;;33.91;23.00
5062;BME280;2351;50.812;12.872;2023-07-09T13:15:56;98224.97;;;34.00;22.98
5062;BME280;2351;50.812;12.872;2023-07-09T13:18:30;98218.59;;;34.15;22.65
5062;BME280;2351;50.812;12.872;2023-07-09T13:21:15;98222.69;;;34.12;22.24
5062;BME280;2351;50.812;12.872;2023-07-09T13:23:47;98224.88;;;34.15;22.17
5062;BME280;2351;50.812;12.872;2023-07-09T13:26:21;98219.63;;;34.29;21.29
5062;BME280;2351;50.812;12.872;2023-07-09T13:28:52;98218.31;;;34.11;21.03
5062;BME280;2351;50.812;12.872;2023-07-09T13:31:24;98222.75;;;34.02;21.27
5062;BME280;2351;50.812;12.872;2023-07-09T13:33:58;98216.66;;;34.15;21.79
5062;BME280;2351;50.812;12.872;2023-07-09T13:36:30;98221.09;;;34.06;21.20
5062;BME280;2351;50.812;12.872;2023-07-09T13:39:02;98217.81;;;34.04;21.38
5062;BME280;2351;50.812;12.872;2023-07-09T13:41:36;98217.53;;;34.05;21.68
5062;BME280;2351;50.812;12.872;2023-07-09T13:44:11;98214.75;;;34.16;21.54
5062;BME280;2351;50.812;12.872;2023-07-09T13:46:44;98206.44;;;34.26;21.64